createdAt,value
2022-08-20T00:03:53.719Z,6.3
2022-08-20T00:08:53.736Z,6.7
2022-08-20T00:13:53.736Z,7.8
2022-08-20T00:18:53.735Z,5.3
2022-08-20T00:23:53.764Z,7.9
2022-08-20T00:28:53.741Z,6.1
2022-08-20T00:33:53.779Z,6
2022-08-20T00:38:53.748Z,6.5
2022-08-20T00:43:53.749Z,4.7
2022-08-20T00:48:53.713Z,6.8
2022-08-20T00:53:53.699Z,5.8
2022-08-20T00:58:53.694Z,7.2
2022-08-20T01:03:53.708Z,5.4
2022-08-20T01:08:53.667Z,6.1
2022-08-20T01:13:53.658Z,5.8
2022-08-20T01:18:53.600Z,6.7
2022-08-20T01:23:53.599Z,9.1
2022-08-20T01:28:53.545Z,6.1
2022-08-20T01:33:53.544Z,7.8
2022-08-20T01:38:54.657Z,8.3
2022-08-20T01:43:53.507Z,8
2022-08-20T01:48:53.436Z,9.1
2022-08-20T01:53:53.453Z,11.4
2022-08-20T01:58:56.192Z,6.9
2022-08-20T02:03:53.484Z,7.5
2022-08-20T02:08:53.385Z,7.3
2022-08-20T02:13:53.369Z,7.8
2022-08-20T02:18:53.303Z,8.6
2022-08-20T02:23:53.317Z,9.6
2022-08-20T02:28:53.265Z,8.1
2022-08-20T02:34:14.746Z,11.2
2022-08-20T02:38:53.225Z,9.9
2022-08-20T02:43:53.195Z,10.1
2022-08-20T02:48:53.096Z,8.1
2022-08-20T02:53:53.110Z,10.1
2022-08-20T02:58:53.079Z,10.9
2022-08-20T03:03:52.976Z,11.2
2022-08-20T03:08:52.917Z,12.1
2022-08-20T03:13:52.903Z,8.7
2022-08-20T03:18:52.823Z,9.2
2022-08-20T03:23:52.796Z,10.2
2022-08-20T03:28:52.730Z,11.4
2022-08-20T03:33:53.743Z,9.5
2022-08-20T03:38:52.615Z,14.1
2022-08-20T03:43:52.580Z,11.6
2022-08-20T03:48:59.735Z,9.3
2022-08-20T03:53:52.471Z,12.6
2022-08-20T03:58:52.366Z,10.2
2022-08-20T04:03:55.224Z,10.9
2022-08-20T04:08:52.932Z,10.3
2022-08-20T04:13:52.195Z,11.8
2022-08-20T04:19:01.634Z,15.2
2022-08-20T04:23:53.132Z,11.1
2022-08-20T04:28:52.028Z,10.2
2022-08-20T04:33:51.935Z,12.4
2022-08-20T04:38:51.853Z,11.5
2022-08-20T04:43:51.805Z,10.2
2022-08-20T04:48:51.687Z,10.8
2022-08-20T04:53:52.201Z,14.3
2022-08-20T04:58:51.598Z,12.8
2022-08-20T05:03:51.509Z,11.2
2022-08-20T05:08:51.362Z,12.2
2022-08-20T05:13:51.286Z,12.2
2022-08-20T05:18:52.423Z,12.5
2022-08-20T05:23:51.129Z,12.5
2022-08-20T05:28:58.743Z,11.6
2022-08-20T05:33:50.944Z,11.2
2022-08-20T05:38:50.883Z,10.1
2022-08-20T05:43:51.571Z,11.9
2022-08-20T05:48:50.726Z,11
2022-08-20T05:53:50.611Z,8.7
2022-08-20T05:58:50.530Z,8.9
2022-08-20T06:03:50.457Z,10.2
2022-08-20T06:08:50.314Z,9
2022-08-20T06:13:50.219Z,9.4
2022-08-20T06:18:50.156Z,9.2
2022-08-20T06:23:57.252Z,9
2022-08-20T06:28:49.986Z,11.9
2022-08-20T06:33:49.945Z,12.8
2022-08-20T06:38:49.824Z,11.3
2022-08-20T06:43:49.744Z,9.8
2022-08-20T06:48:49.677Z,13.5
2022-08-20T06:53:49.607Z,10
2022-08-20T06:58:49.471Z,7
2022-08-20T07:03:55.515Z,8.2
2022-08-20T07:08:49.367Z,7.8
2022-08-20T07:13:49.226Z,6.9
2022-08-20T07:18:49.151Z,7.2
2022-08-20T07:23:49.020Z,5.8
2022-08-20T07:28:48.924Z,8.7
2022-08-20T07:33:50.238Z,7.9
2022-08-20T07:38:48.758Z,5.6
2022-08-20T07:43:48.623Z,6.4
2022-08-20T07:48:48.526Z,7.1
2022-08-20T07:53:48.417Z,6.1
2022-08-20T07:58:48.314Z,5.4
2022-08-20T08:03:49.647Z,4.4
2022-08-20T08:08:48.084Z,3.6
2022-08-20T08:13:47.961Z,5.1
2022-08-20T08:18:47.887Z,5.9
2022-08-20T08:23:47.701Z,5.4
2022-08-20T08:28:47.622Z,4.8
2022-08-20T08:33:47.559Z,4.5
2022-08-20T08:38:47.407Z,3.9
2022-08-20T08:43:47.316Z,8
2022-08-20T08:48:47.197Z,6.4
2022-08-20T08:53:47.069Z,6.5
2022-08-20T08:58:46.984Z,5.8
2022-08-20T09:03:46.876Z,7.1
2022-08-20T09:08:46.776Z,5.5
2022-08-20T09:13:46.646Z,4.9
2022-08-20T09:18:46.529Z,5.2
2022-08-20T09:23:46.414Z,5.7
2022-08-20T09:28:51.588Z,5.7
2022-08-20T09:33:46.221Z,5.7
2022-08-20T09:38:46.073Z,11.5
2022-08-20T09:43:45.928Z,5.2
2022-08-20T09:48:47.404Z,7.1
2022-08-20T09:53:45.692Z,7
2022-08-20T09:58:45.508Z,5.9
2022-08-20T10:03:45.409Z,6.1
2022-08-20T10:08:45.255Z,6.3
2022-08-20T10:13:45.145Z,5.4
2022-08-20T10:18:45.017Z,5.7
2022-08-20T10:23:44.915Z,5
2022-08-20T10:28:44.800Z,4.7
2022-08-20T10:33:44.723Z,5.1
2022-08-20T10:38:44.601Z,5.5
2022-08-20T10:43:45.767Z,6.7
2022-08-20T10:48:44.434Z,7.1
2022-08-20T10:53:44.343Z,4.4
2022-08-20T10:58:44.609Z,6.2
2022-08-20T11:03:44.151Z,7.1
2022-08-20T11:08:44.079Z,5.9
2022-08-20T11:13:43.967Z,4.7
2022-08-20T11:18:47.420Z,8.1
2022-08-20T11:23:44.983Z,7.1
2022-08-20T11:28:44.596Z,7.3
2022-08-20T11:33:43.569Z,5.5
2022-08-20T11:38:43.476Z,5.6
2022-08-20T11:43:54.992Z,4.9
2022-08-20T11:48:43.168Z,8.2
2022-08-20T11:53:43.325Z,5.6
2022-08-20T11:58:43.192Z,6.3
2022-08-20T12:03:42.851Z,7
2022-08-20T12:08:42.741Z,5.4
2022-08-20T12:13:47.870Z,6.6
2022-08-20T12:18:42.568Z,6.1
2022-08-20T12:23:42.494Z,6.7
2022-08-20T12:28:42.337Z,7
2022-08-20T12:33:42.359Z,6.1
2022-08-20T12:38:42.714Z,5.4
2022-08-20T12:43:42.030Z,8.8
2022-08-20T12:48:42.010Z,5.1
2022-08-20T12:53:42.128Z,5.2
2022-08-20T12:58:41.805Z,6.5
2022-08-20T13:01:31.161Z,6.5
2022-08-20T13:03:45.183Z,5.8
2022-08-20T13:08:41.518Z,6.3
2022-08-20T13:13:41.431Z,5.9
2022-08-20T13:18:41.342Z,7.1
2022-08-20T13:23:41.288Z,4.8
2022-08-20T13:28:41.166Z,6.2
2022-08-20T13:33:42.126Z,6.9
2022-08-20T13:38:41.024Z,9.3
2022-08-20T13:43:40.922Z,8.1
2022-08-20T13:48:40.925Z,5.1
2022-08-20T13:53:40.847Z,5.9
2022-08-20T13:58:40.805Z,6.7
2022-08-20T14:03:40.742Z,11.7
2022-08-20T14:08:40.686Z,8.9
2022-08-20T14:13:40.617Z,8.6
2022-08-20T14:18:40.556Z,8.8
2022-08-20T14:23:40.498Z,9.5
2022-08-20T14:28:40.476Z,12.6
2022-08-20T14:33:44.460Z,7.5
2022-08-20T14:38:40.471Z,6.8
2022-08-20T14:43:40.341Z,9.5
2022-08-20T14:48:40.355Z,8.2
2022-08-20T14:53:40.663Z,11
2022-08-20T14:58:40.224Z,10.3
2022-08-20T15:03:40.191Z,9.3
2022-08-20T15:08:40.118Z,8.2
2022-08-20T15:13:40.136Z,8.9
2022-08-20T15:18:39.998Z,10.3
2022-08-20T15:23:41.095Z,7.6
2022-08-20T15:28:39.959Z,8.8
2022-08-20T15:33:39.934Z,6.8
2022-08-20T15:38:39.861Z,8.5
2022-08-20T15:43:39.846Z,8.1
2022-08-20T15:48:39.803Z,9.5
2022-08-20T15:53:39.734Z,8.4
2022-08-20T15:58:39.691Z,10.6
2022-08-20T16:03:39.665Z,7.8
2022-08-20T16:08:39.633Z,7.3
2022-08-20T16:13:39.621Z,7.3
2022-08-20T16:18:39.560Z,9.3
2022-08-20T16:23:39.597Z,11
2022-08-20T16:28:39.532Z,9.4
2022-08-20T16:33:39.389Z,6.8
2022-08-20T16:38:39.332Z,6.3
2022-08-20T16:43:39.278Z,9
2022-08-20T16:48:39.203Z,8.8
2022-08-20T16:53:39.093Z,9.6
2022-08-20T16:58:39.052Z,8.5
2022-08-20T17:03:40.278Z,8.4
2022-08-20T17:08:38.992Z,8.3
2022-08-20T17:13:38.909Z,9.7
2022-08-20T17:18:38.908Z,8.7
2022-08-20T17:23:55.329Z,7.7
2022-08-20T17:28:38.817Z,9.2
2022-08-20T17:33:38.798Z,7.9
2022-08-20T17:38:38.667Z,12.1
2022-08-20T17:43:43.633Z,8.7
2022-08-20T17:48:38.582Z,11
2022-08-20T17:53:38.504Z,8
2022-08-20T17:58:38.482Z,8.5
2022-08-20T18:03:38.415Z,10.4
2022-08-20T18:08:38.328Z,10.4
2022-08-20T18:13:45.001Z,10.3
2022-08-20T18:18:45.530Z,10.9
2022-08-20T18:23:38.090Z,8
2022-08-20T18:28:38.729Z,10.5
2022-08-20T18:33:37.977Z,10.9
2022-08-20T18:38:37.915Z,11.1
2022-08-20T18:43:37.868Z,9.1
2022-08-20T18:48:37.826Z,9.6
2022-08-20T18:53:37.785Z,8.4
2022-08-20T18:58:37.676Z,8.1
2022-08-20T19:03:37.683Z,9.5
2022-08-20T19:08:37.596Z,10.2
2022-08-20T19:13:37.503Z,9.4
2022-08-20T19:18:37.479Z,10.5
2022-08-20T19:23:38.257Z,9.8
2022-08-20T19:28:37.324Z,12
2022-08-20T19:33:44.195Z,12.8
2022-08-20T19:38:37.217Z,11.9
2022-08-20T19:43:37.175Z,12.1
2022-08-20T19:48:37.102Z,13.2
2022-08-20T19:53:37.072Z,11.7
2022-08-20T19:58:36.974Z,12.4
2022-08-20T20:03:36.892Z,9.8
2022-08-20T20:08:36.819Z,9.5
2022-08-20T20:13:38.898Z,10.2
2022-08-20T20:18:36.656Z,9
2022-08-20T20:23:45.828Z,10.1
2022-08-20T20:28:36.433Z,9.8
2022-08-20T20:33:37.595Z,7.9
2022-08-20T20:38:36.239Z,11.3
2022-08-20T20:43:36.111Z,11.1
2022-08-20T20:48:36.008Z,8.7
2022-08-20T20:53:53.225Z,10.8
2022-08-20T20:58:35.829Z,9.1
2022-08-20T21:03:35.746Z,12.6
2022-08-20T21:08:35.654Z,9.4
2022-08-20T21:13:35.539Z,11.5
2022-08-20T21:18:35.404Z,10.6
2022-08-20T21:23:40.168Z,11.8
2022-08-20T21:28:35.201Z,8.2
2022-08-20T21:33:35.111Z,12.1
2022-08-20T21:38:35.047Z,9.6
2022-08-20T21:43:34.972Z,8.7
2022-08-20T21:48:34.834Z,10.2
2022-08-20T21:53:34.765Z,10.5
2022-08-20T21:58:34.669Z,9.8
2022-08-20T22:03:34.620Z,10.4
2022-08-20T22:08:34.490Z,8.8
2022-08-20T22:13:34.417Z,10.4
2022-08-20T22:18:34.309Z,9.6
2022-08-20T22:23:34.232Z,9
2022-08-20T22:28:34.169Z,10.2
2022-08-20T22:33:34.048Z,7.9
2022-08-20T22:38:33.970Z,10.2
2022-08-20T22:43:33.883Z,11.9
2022-08-20T22:48:33.793Z,7.9
2022-08-20T22:53:33.673Z,11.1
2022-08-20T22:58:33.571Z,7
2022-08-20T23:03:40.181Z,9.6
2022-08-20T23:08:33.317Z,11.3
2022-08-20T23:13:33.210Z,10
2022-08-20T23:18:33.087Z,8.2
2022-08-20T23:23:32.938Z,10.2
2022-08-20T23:28:32.843Z,9.8
2022-08-20T23:33:32.751Z,10.1
2022-08-20T23:38:32.628Z,8.4
2022-08-20T23:43:32.533Z,7.2
2022-08-20T23:48:32.400Z,9.7
2022-08-20T23:53:32.247Z,10.3
2022-08-20T23:58:32.022Z,7.5
